• Join FlightAware (Why Join?)
  • Login
  • US Flag 
12:04AM EDT


 

Airport Tracker/Info


-or-


 

Live Flight TrackerFlight Track Log ✈ SWA385 ✈ 15-Jul-2013 ✈ KSMF - KSNA

Flight Track Log - Related Links

Times and Time Zones

All times are in EDT time to prevent confusion due to time zone crossing. See the SWA385 flight status page for this flight to view local times or setup timezone preferences in your user account.

Time Position Orientation Groundspeed Altitude Reporting Facility
EDT Latitude Longitude Course Direction KTS MPH feet Rate Location/Type
12:06AM 38.6833 -121.6000 134° Southeast 142 163 1,400  Level Northern Cal TRACON
12:07AM 38.6333 -121.5333 134° Southeast 235 270 3,500 3,180 Climbing Northern Cal TRACON
12:08AM 38.6000 -121.4667 123° Southeast 267 307 7,500 4,080 Climbing Northern Cal TRACON
12:09AM 38.5667 -121.3667 113° Southeast 287 330 11,700 4,020 Climbing Northern Cal TRACON
12:10AM 38.5167 -121.2833 127° Southeast 332 382 15,600 3,600 Climbing Northern Cal TRACON
12:11AM 38.4667 -121.1667 119° Southeast 353 406 19,000 1,800 Climbing Northern Cal TRACON
12:12AM 38.2766 -121.2575 134° Southeast  Level Estimated
12:13AM 38.3925 -121.0181 122° Southeast 363 418 19,900  Level Oakland Center
12:14AM 38.3378 -120.9033 121° Southeast 375 432 23,200 3,000 Climbing Oakland Center
12:15AM 38.2803 -120.7836 121° Southeast 393 452 26,100 2,700 Climbing Oakland Center
12:16AM 38.2136 -120.6644 125° Southeast 408 470 28,700 1,980 Climbing Oakland Center
12:17AM 38.1219 -120.5736 142° Southeast 413 475 30,200 1,740 Climbing Oakland Center
12:18AM 38.0308 -120.4839 142° Southeast 414 476 32,300 2,340 Climbing Oakland Center
12:19AM 37.9389 -120.3964 143° Southeast 410 472 35,000 2,280 Climbing Oakland Center
12:20AM 37.8508 -120.3100 142° Southeast 401 461 37,000 960 Climbing Oakland Center
12:21AM 37.7625 -120.2253 143° Southeast 398 458 37,000 540 Level Oakland Center
12:22AM 37.6689 -120.1542 149° Southeast 395 455 38,200 1,500 Climbing Oakland Center
12:23AM 37.5656 -120.1189 165° South 382 440 40,100 1,320 Climbing Oakland Center
12:24AM 37.4617 -120.0864 166° South 382 440 41,000 420 Climbing Oakland Center
12:25AM 37.3347 -120.0453 166° South 391 450 41,000  Level Oakland Center
12:26AM 37.2294 -120.0106 165° South 391 450 41,000  Level Oakland Center
12:27AM 37.1233 -119.9778 166° South 391 450 41,000  Level Oakland Center
12:28AM 37.0208 -119.9439 165° South 392 451 41,000  Level Oakland Center
12:29AM 36.9147 -119.9092 165° South 393 452 41,000  Level Oakland Center
12:30AM 36.8103 -119.8767 166° South 387 445 41,000  Level Oakland Center
12:31AM 36.7025 -119.8425 166° South 395 455 41,000  Level Oakland Center
12:32AM 36.5969 -119.8094 166° South 393 452 41,000  Level Oakland Center
12:33AM 36.4892 -119.7756 166° South 396 456 41,000  Level Oakland Center
12:34AM 36.3814 -119.7414 166° South 398 458 41,000  Level Oakland Center
12:35AM 36.2533 -119.7008 166° South 396 456 41,000  Level Oakland Center
12:36AM 36.1475 -119.6669 166° South 393 452 41,000  Level Oakland Center
12:37AM 36.0419 -119.6333 166° South 391 450 41,000  Level Oakland Center
12:38AM 35.9358 -119.6139 172° South 387 445 41,000  Level Oakland Center
12:39AM 35.8275 -119.6217 183° South 386 444 41,000  Level Oakland Center
12:40AM 35.7175 -119.6172 178° South 385 443 41,000  Level Oakland Center
12:41AM 35.6097 -119.5922 169° South 388 447 41,000  Level Oakland Center
12:42AM 35.5019 -119.5706 171° South 394 453 41,000  Level Los Angeles Center
12:43AM 35.3950 -119.5469 170° South 390 449 41,000  Level Los Angeles Center
12:44AM 35.2939 -119.4950 157° South 394 453 41,000  Level Los Angeles Center
12:45AM 35.1939 -119.4394 156° South 393 452 41,000  Level Los Angeles Center
12:46AM 35.0944 -119.3828 155° Southeast 393 452 41,000  Level Los Angeles Center
12:47AM 34.9950 -119.3256 155° Southeast 394 453 41,000 -360 Level Los Angeles Center
12:48AM 34.8956 -119.2694 155° Southeast 394 453 40,300 -960 Descending Los Angeles Center
12:49AM 34.7789 -119.2050 156° South 384 442 39,100 -1,860 Descending Los Angeles Center
12:50AM 34.6831 -119.1511 155° Southeast 381 438 36,600 -2,820 Descending Los Angeles Center
12:51AM 34.5817 -119.0950 156° South 381 438 33,400 -3,180 Descending Los Angeles Center
12:52AM 34.4811 -119.0381 155° Southeast 394 453 30,100 -2,880 Descending Los Angeles Center
12:53AM 34.3803 -118.9833 156° South 399 459 27,500 -2,640 Descending Los Angeles Center
12:54AM 34.2822 -118.9286 155° Southeast 391 450 24,800 -2,640 Descending Los Angeles Center
12:56AM 34.1836 -118.8714 154° Southeast 393 452 22,100 -2,640 Descending Los Angeles Center
12:57AM 34.0858 -118.8178 156° South 388 447 19,400 -2,880 Descending Los Angeles Center
12:58AM 33.9781 -118.7572 155° Southeast 378 435 16,200 -2,640 Descending Los Angeles Center
12:59AM 33.8869 -118.7089 156° South 361 415 14,000 -1,920 Descending Los Angeles Center
01:00AM 33.7928 -118.6761 164° South 337 388 12,300 -1,800 Descending Los Angeles Center
01:01AM 33.7050 -118.6439 163° South 333 383 10,400 -1,500 Descending Los Angeles Center
01:02AM 33.6244 -118.6139 163° South 309 356 9,300 -1,260 Descending Los Angeles Center
01:03AM 33.5964 -118.5311 112° Southeast 297 342 7,900 -1,560 Descending Los Angeles Center
01:04AM 33.5911 -118.4333 94° East 295 339 5,900 -1,260 Descending Los Angeles Center
01:05AM 33.5961 -118.3042 87° East 287 330 5,100 -420 Descending Los Angeles Center
01:06AM 33.6311 -118.2269 61° Northeast 276 318 5,100 -60 Level Los Angeles Center
01:07AM 33.6628 -118.1533 63° Northeast 263 303 5,000 -540 Descending Los Angeles Center
01:08AM 33.6950 -118.0839 61° Northeast 247 284 4,100 -960 Descending Los Angeles Center
01:09AM 33.7256 -118.0131 63° Northeast 243 280 3,100 -540 Descending Los Angeles Center
01:10AM 33.7536 -117.9475 63° Northeast 234 269 3,100 -480 Level Los Angeles Center
01:11AM 33.7503 -117.8939 94° East 192 221 2,200 -1,080 Descending Los Angeles Center
01:12AM 33.7244 -117.8519 127° Southeast 149 171 1,000 -960 Descending Los Angeles Center
01:13AM 33.6911 -117.8586 189° South 134 154 300 -360 Descending Los Angeles Center
01:14AM 33.6583 -117.8761 204° Southwest 134 154 300  Level Los Angeles Center
01:16AM 33.6667 -117.8667 132° Southeast  Level FlightAware Approximate
01:23AM 33.6757 -117.8682 132° Southeast  Level Estimated